createdAt,value
2019-01-14T00:00:50.658Z,97895.12
2019-01-14T00:03:22.649Z,97884.09
2019-01-14T00:05:54.378Z,97874.80
2019-01-14T00:08:26.104Z,97870.53
2019-01-14T00:10:57.766Z,97867.80
2019-01-14T00:13:29.469Z,97867.28
2019-01-14T00:16:01.761Z,97865.89
2019-01-14T00:18:33.675Z,97851.83
2019-01-14T00:21:05.414Z,97840.36
2019-01-14T00:23:37.091Z,97831.11
2019-01-14T00:26:08.579Z,97827.24
2019-01-14T00:28:40.178Z,97822.05
2019-01-14T00:31:11.908Z,97802.29
2019-01-14T00:33:43.794Z,97800.19
2019-01-14T00:36:17.639Z,97808.30
2019-01-14T00:38:48.872Z,97803.03
2019-01-14T00:41:21.039Z,97798.87
2019-01-14T00:43:52.716Z,97807.62
2019-01-14T00:46:24.782Z,97800.97
2019-01-14T00:48:56.812Z,97786.74
2019-01-14T00:51:28.604Z,97782.28
2019-01-14T00:54:00.203Z,97784.18
2019-01-14T00:56:31.869Z,97776.55
2019-01-14T00:59:03.424Z,97769.45
2019-01-14T01:01:35.176Z,97766.28
2019-01-14T01:04:07.456Z,97762.22
2019-01-14T01:06:39.250Z,97745.44
2019-01-14T01:09:10.853Z,97744.98
2019-01-14T01:11:42.656Z,97742.70
2019-01-14T01:14:14.233Z,97741.30
2019-01-14T01:16:46.027Z,97733.16
2019-01-14T01:19:17.806Z,97728.27
2019-01-14T01:21:49.407Z,97718.66
2019-01-14T01:24:20.935Z,97727.14
2019-01-14T01:26:52.604Z,97736.84
2019-01-14T01:29:24.459Z,97738.80
2019-01-14T01:31:56.170Z,97739.42
2019-01-14T01:34:30.885Z,97748.20
2019-01-14T01:37:02.643Z,97757.05
2019-01-14T01:39:34.364Z,97759.48
2019-01-14T01:42:06.039Z,97779.56
2019-01-14T01:44:37.697Z,97794.50
2019-01-14T01:47:09.315Z,97801.10
2019-01-14T01:49:41.001Z,97808.30
2019-01-14T01:52:12.505Z,97812.37
2019-01-14T01:54:44.414Z,97804.08
2019-01-14T01:57:17.609Z,97800.52
2019-01-14T01:59:49.897Z,97798.58
2019-01-14T02:02:21.658Z,97787.50
2019-01-14T02:04:53.847Z,97770.25
2019-01-14T02:07:25.337Z,97763.15
2019-01-14T02:09:57.766Z,97753.95
2019-01-14T02:12:29.514Z,97738.55
2019-01-14T02:15:01.423Z,97716.36
2019-01-14T02:17:33.031Z,97707.70
2019-01-14T02:20:06.450Z,97686.55
2019-01-14T02:22:38.095Z,97681.25
2019-01-14T02:25:10.520Z,97680.77
2019-01-14T02:27:42.289Z,97675.50
2019-01-14T02:30:18.307Z,97672.93
2019-01-14T02:32:50.052Z,97665.81
2019-01-14T02:35:22.341Z,97667.98
2019-01-14T02:37:54.076Z,97674.34
2019-01-14T02:40:26.062Z,97676.67
2019-01-14T02:42:57.734Z,97672.45
2019-01-14T02:45:29.828Z,97670.38
2019-01-14T02:48:01.462Z,97648.92
2019-01-14T02:50:33.178Z,97640.78
2019-01-14T02:53:04.860Z,97630.44
2019-01-14T02:55:36.501Z,97616.41
2019-01-14T02:58:08.225Z,97612.23
2019-01-14T03:00:39.867Z,97589.02
2019-01-14T03:03:11.837Z,97587.09
2019-01-14T03:05:43.561Z,97578.45
2019-01-14T03:08:15.530Z,97572.31
2019-01-14T03:10:47.156Z,97554.19
2019-01-14T03:13:18.660Z,97530.63
2019-01-14T03:15:50.386Z,97516.85
2019-01-14T03:18:22.201Z,97506.74
2019-01-14T03:20:53.859Z,97531.98
2019-01-14T03:23:25.443Z,97537.33
2019-01-14T03:25:58.370Z,97528.45
2019-01-14T03:28:30.391Z,97518.31
2019-01-14T03:31:02.074Z,97524.84
2019-01-14T03:33:33.887Z,97521.34
2019-01-14T03:36:05.582Z,97516.46
2019-01-14T03:38:37.249Z,97534.15
2019-01-14T03:41:08.908Z,97530.66
2019-01-14T03:43:40.482Z,97528.61
2019-01-14T03:46:12.245Z,97539.66
2019-01-14T03:48:43.902Z,97532.27
2019-01-14T03:51:15.547Z,97535.79
2019-01-14T03:53:47.147Z,97542.07
2019-01-14T03:56:18.977Z,97544.09
2019-01-14T03:58:50.727Z,97546.05
2019-01-14T04:01:22.389Z,97537.92
2019-01-14T04:03:53.968Z,97530.55
2019-01-14T04:06:25.479Z,97530.48
2019-01-14T04:08:57.046Z,97530.40
2019-01-14T04:11:28.702Z,97525.13
2019-01-14T04:14:01.400Z,97526.91
2019-01-14T04:16:33.106Z,97537.86
2019-01-14T04:19:05.024Z,97532.62
2019-01-14T04:21:36.694Z,97525.53
2019-01-14T04:24:08.281Z,97535.37
2019-01-14T04:26:39.747Z,97553.91
2019-01-14T04:29:11.438Z,97562.94
2019-01-14T04:31:43.175Z,97556.56
2019-01-14T04:34:17.208Z,97539.63
2019-01-14T04:36:49.055Z,97535.83
2019-01-14T04:39:21.034Z,97536.56
2019-01-14T04:41:52.696Z,97533.98
2019-01-14T04:44:24.313Z,97529.66
2019-01-14T04:46:56.031Z,97533.63
2019-01-14T04:49:27.908Z,97527.62
2019-01-14T04:51:59.573Z,97512.64
2019-01-14T04:54:31.434Z,97510.41
2019-01-14T04:57:03.518Z,97502.31
2019-01-14T04:59:35.312Z,97499.91
2019-01-14T05:02:07.069Z,97488.29
2019-01-14T05:04:38.735Z,97476.50
2019-01-14T05:07:10.702Z,97474.48
2019-01-14T05:09:42.806Z,97476.33
2019-01-14T05:12:14.403Z,97486.29
2019-01-14T05:14:45.973Z,97474.48
2019-01-14T05:17:17.809Z,97476.03
2019-01-14T05:19:49.444Z,97466.72
2019-01-14T05:22:21.100Z,97453.55
2019-01-14T05:24:52.594Z,97455.47
2019-01-14T05:27:24.169Z,97459.05
2019-01-14T05:29:58.951Z,97433.01
2019-01-14T05:32:30.657Z,97429.83
2019-01-14T05:35:02.280Z,97425.12
2019-01-14T05:37:37.769Z,97421.25
2019-01-14T05:40:16.102Z,97415.63
2019-01-14T05:42:48.007Z,97409.13
2019-01-14T05:45:19.822Z,97402.48
2019-01-14T05:47:51.461Z,97402.77
2019-01-14T05:50:23.314Z,97410.91
2019-01-14T05:52:54.885Z,97397.09
2019-01-14T05:55:26.589Z,97391.66
2019-01-14T05:57:58.300Z,97390.06
2019-01-14T06:00:51.423Z,97393.07
2019-01-14T06:03:24.436Z,97384.59
2019-01-14T06:05:56.267Z,97372.39
2019-01-14T06:08:29.704Z,97372.45
2019-01-14T06:11:01.490Z,97364.02
2019-01-14T06:13:33.598Z,97365.34
2019-01-14T06:16:05.655Z,97368.39
2019-01-14T06:18:37.239Z,97362.78
2019-01-14T06:21:09.140Z,97356.70
2019-01-14T06:23:41.003Z,97346.92
2019-01-14T06:26:12.729Z,97338.30
2019-01-14T06:28:44.283Z,97336.72
2019-01-14T06:31:15.957Z,97331.17
2019-01-14T06:33:47.898Z,97337.34
2019-01-14T06:36:19.640Z,97338.62
2019-01-14T06:38:51.221Z,97339.08
2019-01-14T06:41:23.045Z,97348.50
2019-01-14T06:43:54.621Z,97363.19
2019-01-14T06:46:26.243Z,97364.37
2019-01-14T06:48:57.830Z,97366.03
2019-01-14T06:51:29.590Z,97369.08
2019-01-14T06:54:01.300Z,97357.75
2019-01-14T06:56:33.062Z,97381.63
2019-01-14T06:59:05.214Z,97390.56
2019-01-14T07:01:36.728Z,97396.11
2019-01-14T07:04:08.494Z,97389.64
2019-01-14T07:06:40.324Z,97390.66
2019-01-14T07:09:12.159Z,97405.27
2019-01-14T07:11:45.045Z,97401.73
2019-01-14T07:14:16.645Z,97400.81
2019-01-14T07:16:49.463Z,97393.39
2019-01-14T07:19:21.130Z,97392.56
2019-01-14T07:21:53.341Z,97400.01
2019-01-14T07:24:25.359Z,97401.30
2019-01-14T07:26:58.280Z,97401.14
2019-01-14T07:29:29.901Z,97411.05
2019-01-14T07:32:01.685Z,97422.20
2019-01-14T07:34:33.401Z,97428.04
2019-01-14T07:37:05.051Z,97422.41
2019-01-14T07:39:36.776Z,97423.23
2019-01-14T07:42:09.012Z,97415.55
2019-01-14T07:44:40.800Z,97419.75
2019-01-14T07:47:14.770Z,97428.28
2019-01-14T07:49:46.508Z,97443.34
2019-01-14T07:52:18.419Z,97448.87
2019-01-14T07:54:50.136Z,97442.80
2019-01-14T07:57:21.746Z,97451.44
2019-01-14T07:59:53.323Z,97463.55
2019-01-14T08:02:25.132Z,97467.92
2019-01-14T08:04:57.182Z,97453.25
2019-01-14T08:07:29.457Z,97452.24
2019-01-14T08:10:01.748Z,97453.31
2019-01-14T08:12:52.095Z,97453.56
2019-01-14T08:15:24.788Z,97455.12
2019-01-14T08:17:56.654Z,97454.91
2019-01-14T08:20:28.557Z,97452.47
2019-01-14T08:23:00.405Z,97464.00
2019-01-14T08:25:32.229Z,97467.72
2019-01-14T08:28:03.875Z,97473.24
2019-01-14T08:30:35.646Z,97465.08
2019-01-14T08:33:07.492Z,97462.70
2019-01-14T08:35:39.382Z,97455.02
2019-01-14T08:38:11.162Z,97467.77
2019-01-14T08:40:42.865Z,97483.20
2019-01-14T08:43:14.761Z,97489.94
2019-01-14T08:45:46.501Z,97478.48
2019-01-14T08:48:18.388Z,97507.84
2019-01-14T08:50:50.294Z,97505.88
2019-01-14T08:53:22.800Z,97504.09
2019-01-14T08:55:54.874Z,97511.75
2019-01-14T08:58:26.777Z,97520.78
2019-01-14T09:00:58.577Z,97526.60
2019-01-14T09:03:30.602Z,97524.43
2019-01-14T09:06:02.911Z,97512.80
2019-01-14T09:08:34.928Z,97524.59
2019-01-14T09:11:07.397Z,97536.12
2019-01-14T09:13:40.209Z,97525.28
2019-01-14T09:16:13.049Z,97526.67
2019-01-14T09:18:45.186Z,97529.03
2019-01-14T09:21:16.732Z,97533.67
2019-01-14T09:23:48.840Z,97528.60
2019-01-14T09:26:20.574Z,97538.70
2019-01-14T09:28:52.316Z,97538.47
2019-01-14T09:31:25.148Z,97543.31
2019-01-14T09:33:58.215Z,97542.34
2019-01-14T09:36:30.438Z,97535.20
2019-01-14T09:39:02.425Z,97530.42
2019-01-14T09:41:34.416Z,97536.36
2019-01-14T09:44:07.008Z,97534.36
2019-01-14T09:46:39.572Z,97541.32
2019-01-14T09:49:11.745Z,97543.98
2019-01-14T09:51:43.368Z,97531.44
2019-01-14T09:54:15.048Z,97522.53
2019-01-14T09:56:46.800Z,97523.84
2019-01-14T09:59:18.575Z,97529.75
2019-01-14T10:01:50.700Z,97527.20
2019-01-14T10:04:22.473Z,97518.94
2019-01-14T10:06:54.275Z,97521.27
2019-01-14T10:09:26.229Z,97514.44
2019-01-14T10:11:58.322Z,97518.45
2019-01-14T10:14:30.355Z,97523.91
2019-01-14T10:17:02.581Z,97509.94
2019-01-14T10:19:34.197Z,97510.16
2019-01-14T10:22:06.037Z,97502.77
2019-01-14T10:24:37.742Z,97501.59
2019-01-14T10:27:09.767Z,97485.50
2019-01-14T10:29:41.784Z,97493.12
2019-01-14T10:32:13.824Z,97497.52
2019-01-14T10:34:45.612Z,97490.96
2019-01-14T10:37:22.762Z,97494.20
2019-01-14T10:39:51.787Z,97489.16
2019-01-14T10:42:23.408Z,97477.84
2019-01-14T10:44:55.043Z,97477.38
2019-01-14T10:47:26.959Z,97468.13
2019-01-14T10:50:01.563Z,97458.47
2019-01-14T10:52:33.303Z,97464.87
2019-01-14T10:55:12.105Z,97467.41
2019-01-14T10:57:38.571Z,97461.06
2019-01-14T11:00:15.323Z,97458.50
2019-01-14T11:02:48.133Z,97457.00
2019-01-14T11:05:24.698Z,97458.34
2019-01-14T11:07:56.451Z,97449.56
2019-01-14T11:10:28.160Z,97451.10
2019-01-14T11:13:00.275Z,97449.37
2019-01-14T11:15:32.342Z,97444.46
2019-01-14T11:18:04.034Z,97457.70
2019-01-14T11:20:35.727Z,97457.00
2019-01-14T11:23:07.721Z,97459.87
2019-01-14T11:25:39.672Z,97455.02
2019-01-14T11:28:11.486Z,97456.92
2019-01-14T11:30:43.320Z,97455.95
2019-01-14T11:33:15.263Z,97454.19
2019-01-14T11:35:47.733Z,97450.80
2019-01-14T11:38:52.567Z,97447.73
2019-01-14T11:41:26.275Z,97440.84
2019-01-14T11:44:00.375Z,97442.34
2019-01-14T11:46:32.496Z,97446.14
2019-01-14T11:49:06.391Z,97443.50
2019-01-14T11:51:39.599Z,97437.94
2019-01-14T11:54:11.509Z,97443.84
2019-01-14T11:56:43.670Z,97445.50
2019-01-14T11:59:16.551Z,97447.83
2019-01-14T12:01:48.142Z,97454.95
2019-01-14T12:04:20.081Z,97455.97
2019-01-14T12:06:52.012Z,97461.02
2019-01-14T12:09:23.626Z,97465.27
2019-01-14T12:11:55.585Z,97459.23
2019-01-14T12:14:27.531Z,97448.75
2019-01-14T12:16:59.408Z,97448.35
2019-01-14T12:19:32.937Z,97451.56
2019-01-14T12:22:05.886Z,97458.53
2019-01-14T12:24:37.764Z,97456.37
2019-01-14T12:27:09.718Z,97456.70
2019-01-14T12:29:41.971Z,97456.70
2019-01-14T12:32:13.679Z,97458.28
2019-01-14T12:34:45.896Z,97461.70
2019-01-14T12:37:17.874Z,97458.16
2019-01-14T12:39:49.906Z,97470.86
2019-01-14T12:42:21.759Z,97462.27
2019-01-14T12:44:54.370Z,97466.36
2019-01-14T12:47:26.324Z,97463.60
2019-01-14T12:49:58.060Z,97457.67
2019-01-14T12:52:29.735Z,97464.95
2019-01-14T12:55:02.401Z,97473.10
2019-01-14T12:57:34.450Z,97466.44
2019-01-14T13:00:11.845Z,97469.08
2019-01-14T13:02:43.861Z,97474.45
2019-01-14T13:05:16.771Z,97473.64
2019-01-14T13:07:49.465Z,97472.48
2019-01-14T13:10:22.292Z,97473.50
2019-01-14T13:12:54.184Z,97471.67
2019-01-14T13:15:28.322Z,97471.63
2019-01-14T13:18:05.235Z,97481.42
2019-01-14T13:20:34.032Z,97485.08
2019-01-14T13:23:06.345Z,97485.06
2019-01-14T13:25:38.718Z,97490.11
2019-01-14T13:28:10.932Z,97479.50
2019-01-14T13:30:43.853Z,97481.91
2019-01-14T13:33:15.775Z,97480.16
2019-01-14T13:35:47.572Z,97483.97
2019-01-14T13:38:19.452Z,97479.56
2019-01-14T13:40:51.251Z,97478.84
2019-01-14T13:43:23.425Z,97474.81
2019-01-14T13:45:55.373Z,97466.21
2019-01-14T13:48:27.585Z,97471.97
2019-01-14T13:50:59.746Z,97463.73
2019-01-14T13:53:31.549Z,97465.50
2019-01-14T13:56:03.516Z,97465.27
2019-01-14T13:58:35.532Z,97470.37
2019-01-14T14:01:07.607Z,97471.92
2019-01-14T14:03:40.057Z,97479.25
2019-01-14T14:06:12.197Z,97485.37
2019-01-14T14:08:45.099Z,97478.84
2019-01-14T14:11:17.580Z,97486.09
2019-01-14T14:13:50.225Z,97490.88
2019-01-14T14:16:22.561Z,97491.42
2019-01-14T14:18:54.883Z,97490.59
2019-01-14T14:21:26.571Z,97492.75
2019-01-14T14:23:58.613Z,97496.30
2019-01-14T14:26:30.647Z,97500.05
2019-01-14T14:29:02.759Z,97499.73
2019-01-14T14:31:34.864Z,97505.24
2019-01-14T14:34:06.589Z,97502.79
2019-01-14T14:36:40.278Z,97497.80
2019-01-14T14:39:16.052Z,97507.49
2019-01-14T14:41:47.911Z,97504.25
2019-01-14T14:44:19.919Z,97515.78
2019-01-14T14:46:51.776Z,97517.72
2019-01-14T14:49:24.141Z,97519.16
2019-01-14T14:51:55.815Z,97526.81
2019-01-14T14:54:27.493Z,97527.53
2019-01-14T14:56:59.707Z,97532.48
2019-01-14T14:59:50.223Z,97537.42
2019-01-14T15:02:22.381Z,97539.53
2019-01-14T15:04:54.582Z,97547.09
2019-01-14T15:07:27.566Z,97556.73
2019-01-14T15:10:00.206Z,97557.48
2019-01-14T15:12:32.833Z,97554.42
2019-01-14T15:15:04.713Z,97561.84
2019-01-14T15:17:36.514Z,97565.98
2019-01-14T15:20:11.629Z,97565.07
2019-01-14T15:22:43.488Z,97567.44
2019-01-14T15:25:15.969Z,97577.31
2019-01-14T15:27:47.679Z,97575.49
2019-01-14T15:30:31.671Z,97576.75
2019-01-14T15:33:06.373Z,97575.73
2019-01-14T15:35:38.293Z,97585.98
2019-01-14T15:38:09.962Z,97593.52
2019-01-14T15:40:41.816Z,97588.30
2019-01-14T15:43:14.297Z,97587.19
2019-01-14T15:45:47.243Z,97588.30
2019-01-14T15:48:19.137Z,97594.92
2019-01-14T15:50:51.083Z,97584.56
2019-01-14T15:53:22.829Z,97590.66
2019-01-14T15:55:55.002Z,97591.66
2019-01-14T15:58:26.707Z,97587.95
2019-01-14T16:00:59.140Z,97593.68
2019-01-14T16:03:31.946Z,97592.79
2019-01-14T16:06:03.799Z,97594.21
2019-01-14T16:08:36.530Z,97593.70
2019-01-14T16:11:08.776Z,97593.19
2019-01-14T16:13:41.192Z,97593.28
2019-01-14T16:16:13.387Z,97599.32
2019-01-14T16:18:47.907Z,97605.02
2019-01-14T16:21:20.795Z,97609.38
2019-01-14T16:23:52.958Z,97618.19
2019-01-14T16:26:24.896Z,97612.96
2019-01-14T16:28:58.252Z,97616.21
2019-01-14T16:31:31.370Z,97614.72
2019-01-14T16:34:03.264Z,97613.19
2019-01-14T16:36:36.067Z,97622.30
2019-01-14T16:39:10.591Z,97632.89
2019-01-14T16:41:42.424Z,97643.23
2019-01-14T16:44:15.102Z,97647.27
2019-01-14T16:46:46.917Z,97640.39
2019-01-14T16:49:18.923Z,97646.04
2019-01-14T16:51:51.647Z,97648.08
2019-01-14T16:54:26.329Z,97650.78
2019-01-14T16:56:58.852Z,97649.16
2019-01-14T16:59:31.492Z,97654.27
2019-01-14T17:02:03.355Z,97662.34
2019-01-14T17:04:36.115Z,97672.66
2019-01-14T17:07:08.229Z,97675.47
2019-01-14T17:09:41.157Z,97678.66
2019-01-14T17:12:12.930Z,97676.78
2019-01-14T17:14:44.707Z,97689.30
2019-01-14T17:17:19.913Z,97687.30
2019-01-14T17:19:52.388Z,97689.78
2019-01-14T17:22:24.355Z,97706.80
2019-01-14T17:24:56.294Z,97713.08
2019-01-14T17:27:28.302Z,97701.57
2019-01-14T17:30:00.207Z,97711.80
2019-01-14T17:32:32.887Z,97712.80
2019-01-14T17:35:05.070Z,97713.00
2019-01-14T17:37:38.015Z,97720.31
2019-01-14T17:40:14.314Z,97716.86
2019-01-14T17:42:46.959Z,97733.76
2019-01-14T17:45:20.516Z,97735.96
2019-01-14T17:47:53.731Z,97735.31
2019-01-14T17:50:27.402Z,97736.92
2019-01-14T17:53:01.327Z,97752.05
2019-01-14T17:55:35.091Z,97750.57
2019-01-14T17:58:08.613Z,97755.02
2019-01-14T18:00:45.059Z,97763.55
2019-01-14T18:03:24.581Z,97759.31
2019-01-14T18:05:58.569Z,97768.27
2019-01-14T18:08:35.139Z,97775.13
2019-01-14T18:11:09.385Z,97773.46
2019-01-14T18:13:45.167Z,97765.48
2019-01-14T18:16:21.473Z,97766.41
2019-01-14T18:18:54.451Z,97776.63
2019-01-14T18:21:26.918Z,97785.09
2019-01-14T18:23:58.703Z,97784.44
2019-01-14T18:26:30.940Z,97782.81
2019-01-14T18:29:03.710Z,97783.95
2019-01-14T18:31:36.036Z,97793.45
2019-01-14T18:34:08.128Z,97796.33
2019-01-14T18:36:40.159Z,97793.84
2019-01-14T18:39:12.553Z,97796.05
2019-01-14T18:41:45.616Z,97806.50
2019-01-14T18:44:17.720Z,97805.20
2019-01-14T18:46:51.546Z,97804.77
2019-01-14T18:49:23.387Z,97808.25
2019-01-14T18:51:56.251Z,97817.56
2019-01-14T18:54:28.374Z,97817.16
2019-01-14T18:57:01.276Z,97820.31
2019-01-14T18:59:33.240Z,97824.06
2019-01-14T19:02:05.458Z,97827.27
2019-01-14T19:04:37.592Z,97832.34
2019-01-14T19:07:09.644Z,97837.63
2019-01-14T19:09:41.568Z,97842.89
2019-01-14T19:12:13.590Z,97840.22
2019-01-14T19:14:46.774Z,97853.40
2019-01-14T19:17:18.629Z,97855.03
2019-01-14T19:19:50.490Z,97861.50
2019-01-14T19:22:22.446Z,97868.10
2019-01-14T19:24:55.268Z,97866.06
2019-01-14T19:27:27.225Z,97876.78
2019-01-14T19:30:00.006Z,97884.77
2019-01-14T19:32:38.345Z,97900.33
2019-01-14T19:35:06.711Z,97902.89
2019-01-14T19:37:40.420Z,97901.51
2019-01-14T19:40:15.289Z,97916.47
2019-01-14T19:42:47.223Z,97912.17
2019-01-14T19:45:21.939Z,97910.84
2019-01-14T19:47:53.793Z,97918.38
2019-01-14T19:50:27.366Z,97925.45
2019-01-14T19:53:03.096Z,97930.84
2019-01-14T19:55:35.116Z,97937.95
2019-01-14T19:58:08.287Z,97940.75
2019-01-14T20:00:40.375Z,97941.51
2019-01-14T20:03:12.638Z,97937.42
2019-01-14T20:05:44.392Z,97951.14
2019-01-14T20:08:19.141Z,97949.26
2019-01-14T20:10:51.120Z,97954.53
2019-01-14T20:13:23.171Z,97954.23
2019-01-14T20:15:56.149Z,97954.81
2019-01-14T20:18:28.180Z,97956.16
2019-01-14T20:20:59.924Z,97963.27
2019-01-14T20:23:31.766Z,97959.91
2019-01-14T20:26:03.989Z,97959.27
2019-01-14T20:28:35.900Z,97963.17
2019-01-14T20:31:08.376Z,97962.53
2019-01-14T20:33:40.871Z,97971.28
2019-01-14T20:36:13.065Z,97978.04
2019-01-14T20:38:45.717Z,97971.52
2019-01-14T20:41:18.785Z,97975.25
2019-01-14T20:43:51.964Z,97972.80
2019-01-14T20:46:25.976Z,97979.66
2019-01-14T20:49:00.038Z,97983.89
2019-01-14T20:51:34.160Z,97993.55
2019-01-14T20:54:06.752Z,97991.69
2019-01-14T20:56:39.350Z,97994.44
2019-01-14T20:59:11.825Z,97998.80
2019-01-14T21:01:43.970Z,98003.83
2019-01-14T21:04:16.059Z,98006.01
2019-01-14T21:06:50.068Z,97998.83
2019-01-14T21:09:22.104Z,97999.19
2019-01-14T21:11:54.368Z,98006.64
2019-01-14T21:14:27.069Z,98007.40
2019-01-14T21:16:59.186Z,98008.30
2019-01-14T21:19:32.365Z,98006.30
2019-01-14T21:22:04.263Z,98007.76
2019-01-14T21:24:36.764Z,98005.77
2019-01-14T21:27:08.579Z,98010.39
2019-01-14T21:29:40.711Z,98014.25
2019-01-14T21:32:14.017Z,98016.95
2019-01-14T21:34:46.488Z,98012.45
2019-01-14T21:37:18.899Z,98017.30
2019-01-14T21:39:54.505Z,98019.05
2019-01-14T21:42:29.392Z,98027.38
2019-01-14T21:45:01.270Z,98031.12
2019-01-14T21:47:33.476Z,98037.20
2019-01-14T21:50:06.166Z,98033.98
2019-01-14T21:52:39.085Z,98033.73
2019-01-14T21:55:13.996Z,98032.22
2019-01-14T21:57:47.931Z,98035.20
2019-01-14T22:00:23.147Z,98041.22
2019-01-14T22:02:55.384Z,98048.22
2019-01-14T22:05:27.388Z,98051.31
2019-01-14T22:07:59.933Z,98054.66
2019-01-14T22:10:32.266Z,98055.58
2019-01-14T22:13:05.515Z,98055.54
2019-01-14T22:15:38.461Z,98060.27
2019-01-14T22:18:11.682Z,98061.92
2019-01-14T22:20:44.182Z,98062.15
2019-01-14T22:23:17.109Z,98073.44
2019-01-14T22:25:49.432Z,98076.53
2019-01-14T22:28:23.297Z,98080.77
2019-01-14T22:30:58.298Z,98087.89
2019-01-14T22:33:32.084Z,98087.08
2019-01-14T22:36:04.090Z,98088.36
2019-01-14T22:38:37.348Z,98093.76
2019-01-14T22:41:09.468Z,98103.47
2019-01-14T22:43:42.617Z,98106.45
2019-01-14T22:46:14.817Z,98113.39
2019-01-14T22:48:47.091Z,98126.09
2019-01-14T22:51:20.101Z,98123.28
2019-01-14T22:53:53.280Z,98123.97
2019-01-14T22:56:25.048Z,98129.74
2019-01-14T22:58:58.001Z,98140.75
2019-01-14T23:01:39.937Z,98146.50
2019-01-14T23:04:13.261Z,98157.44
2019-01-14T23:06:45.318Z,98152.72
2019-01-14T23:09:50.678Z,98157.23
2019-01-14T23:12:22.413Z,98161.98
2019-01-14T23:14:54.415Z,98178.06
2019-01-14T23:17:26.042Z,98184.59
2019-01-14T23:19:57.576Z,98184.84
2019-01-14T23:22:29.109Z,98190.29
2019-01-14T23:25:00.721Z,98207.10
2019-01-14T23:27:32.471Z,98204.33
2019-01-14T23:30:04.457Z,98206.28
2019-01-14T23:32:36.690Z,98207.52
2019-01-14T23:35:09.052Z,98210.25
2019-01-14T23:37:41.016Z,98207.64
2019-01-14T23:40:12.903Z,98216.22
2019-01-14T23:42:44.801Z,98222.85
2019-01-14T23:45:16.509Z,98219.94
2019-01-14T23:47:48.402Z,98228.83
2019-01-14T23:50:21.610Z,98230.02
2019-01-14T23:52:53.593Z,98234.91
2019-01-14T23:55:25.673Z,98234.41
2019-01-14T23:57:57.444Z,98239.11
